sensor_id;sensor_type;location;lat;lon;timestamp;P1;durP1;ratioP1;P2;durP2;ratioP2
78860;SDS011;68211;45.774;15.892;2023-08-24T00:00:32;56.85;;;32.53;;
78860;SDS011;68211;45.774;15.892;2023-08-24T00:02:59;51.67;;;31.20;;
78860;SDS011;68211;45.774;15.892;2023-08-24T00:05:27;53.25;;;32.58;;
78860;SDS011;68211;45.774;15.892;2023-08-24T00:07:53;48.92;;;31.90;;
78860;SDS011;68211;45.774;15.892;2023-08-24T00:10:20;50.75;;;31.92;;
78860;SDS011;68211;45.774;15.892;2023-08-24T00:12:46;53.63;;;31.85;;
78860;SDS011;68211;45.774;15.892;2023-08-24T00:15:13;59.00;;;34.00;;
78860;SDS011;68211;45.774;15.892;2023-08-24T00:17:39;62.45;;;32.35;;
78860;SDS011;68211;45.774;15.892;2023-08-24T00:20:06;46.03;;;30.95;;
78860;SDS011;68211;45.774;15.892;2023-08-24T00:22:34;53.60;;;32.78;;
78860;SDS011;68211;45.774;15.892;2023-08-24T00:25:01;47.60;;;30.80;;
78860;SDS011;68211;45.774;15.892;2023-08-24T00:27:27;46.10;;;32.00;;
78860;SDS011;68211;45.774;15.892;2023-08-24T00:29:54;53.28;;;32.42;;
78860;SDS011;68211;45.774;15.892;2023-08-24T00:32:22;55.50;;;31.95;;
78860;SDS011;68211;45.774;15.892;2023-08-24T00:34:49;57.20;;;33.05;;
78860;SDS011;68211;45.774;15.892;2023-08-24T00:37:16;59.08;;;32.00;;
78860;SDS011;68211;45.774;15.892;2023-08-24T00:39:44;54.47;;;30.90;;
78860;SDS011;68211;45.774;15.892;2023-08-24T00:42:10;50.13;;;30.73;;
78860;SDS011;68211;45.774;15.892;2023-08-24T00:44:37;57.00;;;30.80;;
78860;SDS011;68211;45.774;15.892;2023-08-24T00:47:03;55.50;;;31.75;;
78860;SDS011;68211;45.774;15.892;2023-08-24T00:49:30;48.75;;;31.33;;
78860;SDS011;68211;45.774;15.892;2023-08-24T00:51:57;52.15;;;32.58;;
78860;SDS011;68211;45.774;15.892;2023-08-24T00:54:24;55.80;;;31.67;;
78860;SDS011;68211;45.774;15.892;2023-08-24T00:56:53;56.50;;;30.45;;
78860;SDS011;68211;45.774;15.892;2023-08-24T00:59:19;55.05;;;28.42;;
78860;SDS011;68211;45.774;15.892;2023-08-24T01:01:46;60.38;;;29.20;;
78860;SDS011;68211;45.774;15.892;2023-08-24T01:04:13;41.72;;;28.25;;
78860;SDS011;68211;45.774;15.892;2023-08-24T01:06:40;55.90;;;28.85;;
78860;SDS011;68211;45.774;15.892;2023-08-24T01:09:08;47.47;;;29.55;;
78860;SDS011;68211;45.774;15.892;2023-08-24T01:11:45;49.25;;;29.48;;
78860;SDS011;68211;45.774;15.892;2023-08-24T01:14:20;50.38;;;30.35;;
78860;SDS011;68211;45.774;15.892;2023-08-24T01:16:47;44.72;;;28.92;;
78860;SDS011;68211;45.774;15.892;2023-08-24T01:19:19;56.33;;;28.98;;
78860;SDS011;68211;45.774;15.892;2023-08-24T01:21:47;55.67;;;30.20;;
78860;SDS011;68211;45.774;15.892;2023-08-24T01:24:17;52.90;;;30.48;;
78860;SDS011;68211;45.774;15.892;2023-08-24T01:26:46;43.95;;;28.13;;
78860;SDS011;68211;45.774;15.892;2023-08-24T01:29:14;54.42;;;28.90;;
78860;SDS011;68211;45.774;15.892;2023-08-24T01:31:41;44.97;;;28.58;;
78860;SDS011;68211;45.774;15.892;2023-08-24T01:34:07;49.95;;;28.75;;
78860;SDS011;68211;45.774;15.892;2023-08-24T01:36:34;53.47;;;30.25;;
78860;SDS011;68211;45.774;15.892;2023-08-24T01:39:02;49.28;;;28.45;;
78860;SDS011;68211;45.774;15.892;2023-08-24T01:41:32;45.25;;;29.00;;
78860;SDS011;68211;45.774;15.892;2023-08-24T01:44:02;45.40;;;29.98;;
78860;SDS011;68211;45.774;15.892;2023-08-24T01:46:29;54.53;;;31.38;;
78860;SDS011;68211;45.774;15.892;2023-08-24T01:48:57;45.00;;;29.77;;
78860;SDS011;68211;45.774;15.892;2023-08-24T01:51:24;55.63;;;32.22;;
78860;SDS011;68211;45.774;15.892;2023-08-24T01:53:51;50.63;;;30.73;;
78860;SDS011;68211;45.774;15.892;2023-08-24T01:56:18;49.60;;;29.10;;
78860;SDS011;68211;45.774;15.892;2023-08-24T01:58:44;51.67;;;29.00;;
78860;SDS011;68211;45.774;15.892;2023-08-24T02:01:12;49.30;;;30.27;;
78860;SDS011;68211;45.774;15.892;2023-08-24T02:03:39;53.72;;;29.08;;
78860;SDS011;68211;45.774;15.892;2023-08-24T02:06:06;52.78;;;29.92;;
78860;SDS011;68211;45.774;15.892;2023-08-24T02:08:33;54.92;;;30.35;;
78860;SDS011;68211;45.774;15.892;2023-08-24T02:11:00;58.00;;;31.90;;
78860;SDS011;68211;45.774;15.892;2023-08-24T02:13:26;54.33;;;32.13;;
78860;SDS011;68211;45.774;15.892;2023-08-24T02:16:00;58.50;;;31.73;;
78860;SDS011;68211;45.774;15.892;2023-08-24T02:18:28;58.28;;;31.25;;
78860;SDS011;68211;45.774;15.892;2023-08-24T02:20:54;57.30;;;33.13;;
78860;SDS011;68211;45.774;15.892;2023-08-24T02:23:21;57.75;;;32.97;;
78860;SDS011;68211;45.774;15.892;2023-08-24T02:25:47;58.50;;;35.25;;
78860;SDS011;68211;45.774;15.892;2023-08-24T02:28:14;60.50;;;33.83;;
78860;SDS011;68211;45.774;15.892;2023-08-24T02:30:41;50.58;;;34.00;;
78860;SDS011;68211;45.774;15.892;2023-08-24T02:33:07;49.50;;;32.88;;
78860;SDS011;68211;45.774;15.892;2023-08-24T02:35:35;52.05;;;32.03;;
78860;SDS011;68211;45.774;15.892;2023-08-24T02:38:02;56.47;;;31.83;;
78860;SDS011;68211;45.774;15.892;2023-08-24T02:40:29;54.90;;;32.72;;
78860;SDS011;68211;45.774;15.892;2023-08-24T02:42:56;62.38;;;31.63;;
78860;SDS011;68211;45.774;15.892;2023-08-24T02:45:22;49.20;;;31.63;;
78860;SDS011;68211;45.774;15.892;2023-08-24T02:47:49;55.17;;;31.40;;
78860;SDS011;68211;45.774;15.892;2023-08-24T02:50:16;56.95;;;30.65;;
78860;SDS011;68211;45.774;15.892;2023-08-24T02:52:44;54.00;;;31.88;;
78860;SDS011;68211;45.774;15.892;2023-08-24T02:55:10;51.25;;;31.55;;
78860;SDS011;68211;45.774;15.892;2023-08-24T02:57:37;54.13;;;31.27;;
78860;SDS011;68211;45.774;15.892;2023-08-24T03:00:06;54.35;;;30.90;;
78860;SDS011;68211;45.774;15.892;2023-08-24T03:02:33;52.90;;;30.88;;
78860;SDS011;68211;45.774;15.892;2023-08-24T03:05:00;48.92;;;30.75;;
78860;SDS011;68211;45.774;15.892;2023-08-24T03:07:26;53.00;;;30.42;;
78860;SDS011;68211;45.774;15.892;2023-08-24T03:09:54;53.75;;;32.83;;
78860;SDS011;68211;45.774;15.892;2023-08-24T03:12:21;52.95;;;31.92;;
78860;SDS011;68211;45.774;15.892;2023-08-24T03:14:50;55.35;;;32.13;;
78860;SDS011;68211;45.774;15.892;2023-08-24T03:19:43;55.95;;;31.85;;
78860;SDS011;68211;45.774;15.892;2023-08-24T03:22:10;55.95;;;31.60;;
78860;SDS011;68211;45.774;15.892;2023-08-24T03:24:36;50.83;;;30.73;;
78860;SDS011;68211;45.774;15.892;2023-08-24T03:27:04;51.22;;;30.00;;
78860;SDS011;68211;45.774;15.892;2023-08-24T03:29:31;50.40;;;30.60;;
78860;SDS011;68211;45.774;15.892;2023-08-24T03:31:57;48.40;;;30.40;;
78860;SDS011;68211;45.774;15.892;2023-08-24T03:34:24;50.42;;;27.88;;
78860;SDS011;68211;45.774;15.892;2023-08-24T03:36:51;43.58;;;28.02;;
78860;SDS011;68211;45.774;15.892;2023-08-24T03:39:17;51.17;;;29.08;;
78860;SDS011;68211;45.774;15.892;2023-08-24T03:41:44;49.65;;;27.60;;
78860;SDS011;68211;45.774;15.892;2023-08-24T03:44:12;51.15;;;29.88;;
78860;SDS011;68211;45.774;15.892;2023-08-24T03:46:38;52.63;;;28.55;;
78860;SDS011;68211;45.774;15.892;2023-08-24T03:49:05;45.80;;;28.15;;
78860;SDS011;68211;45.774;15.892;2023-08-24T03:51:32;59.10;;;29.60;;
78860;SDS011;68211;45.774;15.892;2023-08-24T03:53:58;57.80;;;30.25;;
78860;SDS011;68211;45.774;15.892;2023-08-24T03:56:25;53.50;;;28.27;;
78860;SDS011;68211;45.774;15.892;2023-08-24T03:58:51;49.63;;;28.73;;
78860;SDS011;68211;45.774;15.892;2023-08-24T04:01:19;52.97;;;29.50;;
78860;SDS011;68211;45.774;15.892;2023-08-24T04:03:46;66.43;;;28.70;;
78860;SDS011;68211;45.774;15.892;2023-08-24T04:06:13;53.90;;;28.63;;
78860;SDS011;68211;45.774;15.892;2023-08-24T04:08:39;56.50;;;28.08;;
78860;SDS011;68211;45.774;15.892;2023-08-24T04:11:06;63.42;;;29.90;;
78860;SDS011;68211;45.774;15.892;2023-08-24T04:13:32;50.15;;;29.45;;
78860;SDS011;68211;45.774;15.892;2023-08-24T04:15:59;56.13;;;27.83;;
78860;SDS011;68211;45.774;15.892;2023-08-24T04:18:27;49.60;;;29.00;;
78860;SDS011;68211;45.774;15.892;2023-08-24T04:20:57;54.13;;;28.13;;
78860;SDS011;68211;45.774;15.892;2023-08-24T04:23:27;54.65;;;29.42;;
78860;SDS011;68211;45.774;15.892;2023-08-24T04:25:54;48.50;;;28.55;;
78860;SDS011;68211;45.774;15.892;2023-08-24T04:28:21;54.05;;;28.25;;
78860;SDS011;68211;45.774;15.892;2023-08-24T04:30:51;51.78;;;28.25;;
78860;SDS011;68211;45.774;15.892;2023-08-24T04:33:20;48.40;;;28.17;;
78860;SDS011;68211;45.774;15.892;2023-08-24T04:35:48;53.33;;;29.15;;
78860;SDS011;68211;45.774;15.892;2023-08-24T04:38:15;51.67;;;29.05;;
78860;SDS011;68211;45.774;15.892;2023-08-24T04:40:46;53.47;;;28.63;;
78860;SDS011;68211;45.774;15.892;2023-08-24T04:43:12;52.50;;;29.25;;
78860;SDS011;68211;45.774;15.892;2023-08-24T04:45:40;55.00;;;30.85;;
78860;SDS011;68211;45.774;15.892;2023-08-24T04:48:07;52.30;;;29.23;;
78860;SDS011;68211;45.774;15.892;2023-08-24T04:50:33;52.22;;;31.98;;
78860;SDS011;68211;45.774;15.892;2023-08-24T04:53:01;62.58;;;32.25;;
78860;SDS011;68211;45.774;15.892;2023-08-24T04:55:28;59.53;;;31.73;;
78860;SDS011;68211;45.774;15.892;2023-08-24T04:57:54;56.90;;;29.30;;
78860;SDS011;68211;45.774;15.892;2023-08-24T05:00:22;53.65;;;30.02;;
78860;SDS011;68211;45.774;15.892;2023-08-24T05:02:48;56.20;;;30.63;;
78860;SDS011;68211;45.774;15.892;2023-08-24T05:05:15;52.50;;;29.90;;
78860;SDS011;68211;45.774;15.892;2023-08-24T05:07:42;49.50;;;29.30;;
78860;SDS011;68211;45.774;15.892;2023-08-24T05:10:10;51.00;;;28.98;;
78860;SDS011;68211;45.774;15.892;2023-08-24T05:12:36;56.10;;;32.27;;
78860;SDS011;68211;45.774;15.892;2023-08-24T05:15:03;48.45;;;31.63;;
78860;SDS011;68211;45.774;15.892;2023-08-24T05:17:30;51.20;;;30.98;;
78860;SDS011;68211;45.774;15.892;2023-08-24T05:19:57;63.40;;;30.27;;
78860;SDS011;68211;45.774;15.892;2023-08-24T05:22:23;55.83;;;30.77;;
78860;SDS011;68211;45.774;15.892;2023-08-24T05:24:50;53.60;;;30.90;;
78860;SDS011;68211;45.774;15.892;2023-08-24T05:27:18;69.15;;;31.67;;
78860;SDS011;68211;45.774;15.892;2023-08-24T05:29:45;56.78;;;32.55;;
78860;SDS011;68211;45.774;15.892;2023-08-24T05:32:12;55.40;;;32.28;;
78860;SDS011;68211;45.774;15.892;2023-08-24T05:34:38;67.88;;;32.63;;
78860;SDS011;68211;45.774;15.892;2023-08-24T05:37:05;61.90;;;33.17;;
78860;SDS011;68211;45.774;15.892;2023-08-24T05:39:31;55.95;;;32.70;;
78860;SDS011;68211;45.774;15.892;2023-08-24T05:41:58;59.85;;;33.00;;
78860;SDS011;68211;45.774;15.892;2023-08-24T05:44:26;54.83;;;32.88;;
78860;SDS011;68211;45.774;15.892;2023-08-24T05:46:53;56.88;;;33.83;;
78860;SDS011;68211;45.774;15.892;2023-08-24T05:49:20;53.92;;;30.25;;
78860;SDS011;68211;45.774;15.892;2023-08-24T05:51:46;49.33;;;30.35;;
78860;SDS011;68211;45.774;15.892;2023-08-24T05:54:14;56.03;;;31.52;;
78860;SDS011;68211;45.774;15.892;2023-08-24T05:56:41;54.42;;;29.45;;
78860;SDS011;68211;45.774;15.892;2023-08-24T05:59:08;54.22;;;30.73;;
78860;SDS011;68211;45.774;15.892;2023-08-24T06:01:36;56.85;;;30.17;;
78860;SDS011;68211;45.774;15.892;2023-08-24T06:04:03;57.73;;;28.53;;
78860;SDS011;68211;45.774;15.892;2023-08-24T06:06:30;47.88;;;28.35;;
78860;SDS011;68211;45.774;15.892;2023-08-24T06:08:56;54.97;;;28.25;;
78860;SDS011;68211;45.774;15.892;2023-08-24T06:11:23;57.40;;;29.83;;
78860;SDS011;68211;45.774;15.892;2023-08-24T06:13:50;50.67;;;29.02;;
78860;SDS011;68211;45.774;15.892;2023-08-24T06:16:17;58.67;;;28.73;;
78860;SDS011;68211;45.774;15.892;2023-08-24T06:18:45;46.17;;;26.80;;
78860;SDS011;68211;45.774;15.892;2023-08-24T06:21:12;61.15;;;26.75;;
78860;SDS011;68211;45.774;15.892;2023-08-24T06:23:40;40.03;;;25.70;;
78860;SDS011;68211;45.774;15.892;2023-08-24T06:26:07;49.83;;;25.90;;
78860;SDS011;68211;45.774;15.892;2023-08-24T06:28:33;47.85;;;26.40;;
78860;SDS011;68211;45.774;15.892;2023-08-24T06:31:00;48.60;;;29.38;;
78860;SDS011;68211;45.774;15.892;2023-08-24T06:33:28;50.13;;;31.98;;
78860;SDS011;68211;45.774;15.892;2023-08-24T06:35:56;72.57;;;32.08;;
78860;SDS011;68211;45.774;15.892;2023-08-24T06:38:22;67.53;;;32.00;;
78860;SDS011;68211;45.774;15.892;2023-08-24T06:40:49;53.47;;;30.15;;
78860;SDS011;68211;45.774;15.892;2023-08-24T06:43:16;56.25;;;29.50;;
78860;SDS011;68211;45.774;15.892;2023-08-24T06:45:43;57.45;;;29.00;;
78860;SDS011;68211;45.774;15.892;2023-08-24T06:48:10;63.03;;;28.52;;
78860;SDS011;68211;45.774;15.892;2023-08-24T06:50:36;55.03;;;28.45;;
78860;SDS011;68211;45.774;15.892;2023-08-24T06:53:05;49.78;;;28.48;;
78860;SDS011;68211;45.774;15.892;2023-08-24T06:55:31;53.70;;;26.73;;
78860;SDS011;68211;45.774;15.892;2023-08-24T06:57:58;50.85;;;26.58;;
78860;SDS011;68211;45.774;15.892;2023-08-24T07:00:25;58.40;;;27.50;;
78860;SDS011;68211;45.774;15.892;2023-08-24T07:02:52;55.10;;;27.52;;
78860;SDS011;68211;45.774;15.892;2023-08-24T07:05:19;49.88;;;27.25;;
78860;SDS011;68211;45.774;15.892;2023-08-24T07:07:45;49.20;;;26.05;;
78860;SDS011;68211;45.774;15.892;2023-08-24T07:10:13;58.33;;;25.63;;
78860;SDS011;68211;45.774;15.892;2023-08-24T07:12:40;64.35;;;26.13;;
78860;SDS011;68211;45.774;15.892;2023-08-24T07:15:07;52.30;;;25.00;;
78860;SDS011;68211;45.774;15.892;2023-08-24T07:17:34;50.85;;;26.05;;
78860;SDS011;68211;45.774;15.892;2023-08-24T07:20:02;73.65;;;26.13;;
78860;SDS011;68211;45.774;15.892;2023-08-24T07:22:29;57.50;;;26.13;;
78860;SDS011;68211;45.774;15.892;2023-08-24T07:24:55;63.00;;;24.48;;
78860;SDS011;68211;45.774;15.892;2023-08-24T07:27:23;52.55;;;25.00;;
78860;SDS011;68211;45.774;15.892;2023-08-24T07:29:50;51.97;;;25.20;;
78860;SDS011;68211;45.774;15.892;2023-08-24T07:32:18;48.35;;;25.38;;
78860;SDS011;68211;45.774;15.892;2023-08-24T07:34:45;50.80;;;25.45;;
78860;SDS011;68211;45.774;15.892;2023-08-24T07:37:11;46.58;;;24.40;;
78860;SDS011;68211;45.774;15.892;2023-08-24T07:39:38;46.83;;;23.90;;
78860;SDS011;68211;45.774;15.892;2023-08-24T07:42:05;44.15;;;24.40;;
78860;SDS011;68211;45.774;15.892;2023-08-24T07:44:33;58.35;;;23.90;;
78860;SDS011;68211;45.774;15.892;2023-08-24T07:50:14;40.08;;;21.95;;
78860;SDS011;68211;45.774;15.892;2023-08-24T07:52:43;38.70;;;23.50;;
78860;SDS011;68211;45.774;15.892;2023-08-24T07:55:10;60.60;;;23.30;;
78860;SDS011;68211;45.774;15.892;2023-08-24T07:57:37;41.30;;;20.33;;
78860;SDS011;68211;45.774;15.892;2023-08-24T08:00:05;47.47;;;21.75;;
78860;SDS011;68211;45.774;15.892;2023-08-24T08:02:35;51.80;;;22.70;;
78860;SDS011;68211;45.774;15.892;2023-08-24T08:05:02;47.35;;;21.52;;
78860;SDS011;68211;45.774;15.892;2023-08-24T08:07:28;54.38;;;22.80;;
78860;SDS011;68211;45.774;15.892;2023-08-24T08:09:55;48.92;;;21.77;;
78860;SDS011;68211;45.774;15.892;2023-08-24T08:12:23;49.25;;;21.00;;
78860;SDS011;68211;45.774;15.892;2023-08-24T08:14:50;37.58;;;21.55;;
78860;SDS011;68211;45.774;15.892;2023-08-24T08:17:17;39.05;;;20.13;;
78860;SDS011;68211;45.774;15.892;2023-08-24T08:19:44;35.20;;;20.33;;
78860;SDS011;68211;45.774;15.892;2023-08-24T08:22:12;34.60;;;19.77;;
78860;SDS011;68211;45.774;15.892;2023-08-24T08:24:38;39.65;;;19.55;;
78860;SDS011;68211;45.774;15.892;2023-08-24T08:27:05;38.95;;;19.55;;
78860;SDS011;68211;45.774;15.892;2023-08-24T08:29:31;48.58;;;20.20;;
78860;SDS011;68211;45.774;15.892;2023-08-24T08:31:58;36.42;;;21.08;;
78860;SDS011;68211;45.774;15.892;2023-08-24T08:34:26;57.50;;;21.58;;
78860;SDS011;68211;45.774;15.892;2023-08-24T08:36:52;37.17;;;21.55;;
78860;SDS011;68211;45.774;15.892;2023-08-24T08:39:19;37.03;;;19.75;;
78860;SDS011;68211;45.774;15.892;2023-08-24T08:41:48;31.52;;;19.02;;
78860;SDS011;68211;45.774;15.892;2023-08-24T08:44:15;28.65;;;17.45;;
78860;SDS011;68211;45.774;15.892;2023-08-24T08:46:42;41.45;;;19.10;;
78860;SDS011;68211;45.774;15.892;2023-08-24T08:49:11;32.00;;;19.02;;
78860;SDS011;68211;45.774;15.892;2023-08-24T08:51:39;33.45;;;19.65;;
78860;SDS011;68211;45.774;15.892;2023-08-24T08:54:06;38.70;;;20.17;;
78860;SDS011;68211;45.774;15.892;2023-08-24T08:56:32;28.80;;;19.10;;
78860;SDS011;68211;45.774;15.892;2023-08-24T08:58:59;37.47;;;18.33;;
78860;SDS011;68211;45.774;15.892;2023-08-24T09:01:27;36.20;;;18.00;;
78860;SDS011;68211;45.774;15.892;2023-08-24T09:03:53;27.75;;;17.58;;
78860;SDS011;68211;45.774;15.892;2023-08-24T09:06:20;26.88;;;17.25;;
78860;SDS011;68211;45.774;15.892;2023-08-24T09:08:49;31.48;;;18.10;;
78860;SDS011;68211;45.774;15.892;2023-08-24T09:11:15;38.17;;;18.88;;
78860;SDS011;68211;45.774;15.892;2023-08-24T09:13:42;36.05;;;18.40;;
78860;SDS011;68211;45.774;15.892;2023-08-24T09:16:09;35.67;;;18.00;;
78860;SDS011;68211;45.774;15.892;2023-08-24T09:18:36;41.63;;;19.30;;
78860;SDS011;68211;45.774;15.892;2023-08-24T09:21:07;30.38;;;19.20;;
78860;SDS011;68211;45.774;15.892;2023-08-24T09:23:34;40.25;;;21.33;;
78860;SDS011;68211;45.774;15.892;2023-08-24T09:26:02;31.10;;;19.17;;
78860;SDS011;68211;45.774;15.892;2023-08-24T09:28:28;33.38;;;18.98;;
78860;SDS011;68211;45.774;15.892;2023-08-24T09:30:55;40.53;;;19.30;;
78860;SDS011;68211;45.774;15.892;2023-08-24T09:33:22;33.85;;;20.48;;
78860;SDS011;68211;45.774;15.892;2023-08-24T09:35:51;35.15;;;20.27;;
78860;SDS011;68211;45.774;15.892;2023-08-24T09:38:18;33.33;;;19.17;;
78860;SDS011;68211;45.774;15.892;2023-08-24T09:40:45;36.63;;;19.63;;
78860;SDS011;68211;45.774;15.892;2023-08-24T09:43:13;32.80;;;19.02;;
78860;SDS011;68211;45.774;15.892;2023-08-24T09:45:47;36.17;;;19.20;;
78860;SDS011;68211;45.774;15.892;2023-08-24T09:48:13;33.20;;;19.58;;
78860;SDS011;68211;45.774;15.892;2023-08-24T09:50:40;36.35;;;19.23;;
78860;SDS011;68211;45.774;15.892;2023-08-24T09:53:07;26.08;;;17.88;;
78860;SDS011;68211;45.774;15.892;2023-08-24T09:55:35;31.73;;;19.50;;
78860;SDS011;68211;45.774;15.892;2023-08-24T09:58:03;30.65;;;19.35;;
78860;SDS011;68211;45.774;15.892;2023-08-24T10:00:31;28.90;;;18.25;;
78860;SDS011;68211;45.774;15.892;2023-08-24T10:02:59;39.47;;;19.70;;
78860;SDS011;68211;45.774;15.892;2023-08-24T10:05:27;33.35;;;19.15;;
78860;SDS011;68211;45.774;15.892;2023-08-24T10:08:10;37.42;;;19.35;;
78860;SDS011;68211;45.774;15.892;2023-08-24T10:10:37;32.25;;;18.98;;
78860;SDS011;68211;45.774;15.892;2023-08-24T10:13:06;32.97;;;18.75;;
78860;SDS011;68211;45.774;15.892;2023-08-24T10:15:36;38.72;;;18.75;;
78860;SDS011;68211;45.774;15.892;2023-08-24T10:18:04;34.00;;;17.10;;
78860;SDS011;68211;45.774;15.892;2023-08-24T10:20:31;38.40;;;17.63;;
78860;SDS011;68211;45.774;15.892;2023-08-24T10:22:58;34.10;;;17.48;;
78860;SDS011;68211;45.774;15.892;2023-08-24T10:25:28;29.77;;;16.17;;
78860;SDS011;68211;45.774;15.892;2023-08-24T10:27:55;24.80;;;16.05;;
78860;SDS011;68211;45.774;15.892;2023-08-24T10:30:22;30.88;;;17.90;;
78860;SDS011;68211;45.774;15.892;2023-08-24T10:32:50;33.17;;;17.50;;
78860;SDS011;68211;45.774;15.892;2023-08-24T10:35:18;28.77;;;16.80;;
78860;SDS011;68211;45.774;15.892;2023-08-24T10:37:51;30.52;;;16.63;;
78860;SDS011;68211;45.774;15.892;2023-08-24T10:40:30;24.67;;;15.00;;
78860;SDS011;68211;45.774;15.892;2023-08-24T10:42:58;24.60;;;15.50;;
78860;SDS011;68211;45.774;15.892;2023-08-24T10:45:28;31.98;;;15.77;;
78860;SDS011;68211;45.774;15.892;2023-08-24T10:48:16;30.38;;;15.70;;
78860;SDS011;68211;45.774;15.892;2023-08-24T10:50:43;29.57;;;14.47;;
78860;SDS011;68211;45.774;15.892;2023-08-24T10:53:39;29.90;;;15.25;;
78860;SDS011;68211;45.774;15.892;2023-08-24T10:56:12;23.25;;;14.40;;
78860;SDS011;68211;45.774;15.892;2023-08-24T10:58:39;28.55;;;14.68;;
78860;SDS011;68211;45.774;15.892;2023-08-24T11:01:05;25.75;;;15.23;;
78860;SDS011;68211;45.774;15.892;2023-08-24T11:03:34;25.33;;;14.30;;
78860;SDS011;68211;45.774;15.892;2023-08-24T11:06:01;28.75;;;14.70;;
78860;SDS011;68211;45.774;15.892;2023-08-24T11:08:43;31.67;;;15.30;;
78860;SDS011;68211;45.774;15.892;2023-08-24T11:11:19;30.13;;;15.10;;
78860;SDS011;68211;45.774;15.892;2023-08-24T11:16:39;31.13;;;14.77;;
78860;SDS011;68211;45.774;15.892;2023-08-24T11:19:07;29.25;;;14.75;;
78860;SDS011;68211;45.774;15.892;2023-08-24T11:21:35;26.48;;;14.70;;
78860;SDS011;68211;45.774;15.892;2023-08-24T11:24:03;26.25;;;14.25;;
78860;SDS011;68211;45.774;15.892;2023-08-24T11:26:32;29.52;;;15.38;;
78860;SDS011;68211;45.774;15.892;2023-08-24T11:29:00;26.05;;;14.43;;
78860;SDS011;68211;45.774;15.892;2023-08-24T11:31:30;30.77;;;15.02;;
78860;SDS011;68211;45.774;15.892;2023-08-24T11:33:57;32.33;;;15.73;;
78860;SDS011;68211;45.774;15.892;2023-08-24T11:36:25;36.28;;;15.80;;
78860;SDS011;68211;45.774;15.892;2023-08-24T11:38:52;23.70;;;15.17;;
78860;SDS011;68211;45.774;15.892;2023-08-24T11:50:42;24.75;;;15.60;;
78860;SDS011;68211;45.774;15.892;2023-08-24T12:11:54;26.45;;;15.43;;
78860;SDS011;68211;45.774;15.892;2023-08-24T12:14:24;25.48;;;15.75;;
78860;SDS011;68211;45.774;15.892;2023-08-24T12:16:51;21.25;;;14.90;;
78860;SDS011;68211;45.774;15.892;2023-08-24T12:19:17;33.72;;;16.00;;
78860;SDS011;68211;45.774;15.892;2023-08-24T12:21:49;27.45;;;16.23;;
78860;SDS011;68211;45.774;15.892;2023-08-24T12:24:17;28.77;;;16.40;;
78860;SDS011;68211;45.774;15.892;2023-08-24T12:26:54;22.75;;;16.60;;
78860;SDS011;68211;45.774;15.892;2023-08-24T12:29:26;25.85;;;17.38;;
78860;SDS011;68211;45.774;15.892;2023-08-24T12:31:58;31.05;;;17.80;;
78860;SDS011;68211;45.774;15.892;2023-08-24T12:34:24;28.85;;;17.77;;
78860;SDS011;68211;45.774;15.892;2023-08-24T12:36:51;25.75;;;16.25;;
78860;SDS011;68211;45.774;15.892;2023-08-24T12:39:25;30.15;;;16.40;;
78860;SDS011;68211;45.774;15.892;2023-08-24T12:41:57;28.75;;;15.73;;
78860;SDS011;68211;45.774;15.892;2023-08-24T12:47:25;35.25;;;15.98;;
78860;SDS011;68211;45.774;15.892;2023-08-24T12:50:32;36.63;;;14.98;;
78860;SDS011;68211;45.774;15.892;2023-08-24T12:53:02;27.25;;;13.88;;
78860;SDS011;68211;45.774;15.892;2023-08-24T12:55:38;26.15;;;15.02;;
78860;SDS011;68211;45.774;15.892;2023-08-24T13:01:16;29.70;;;14.77;;
78860;SDS011;68211;45.774;15.892;2023-08-24T13:03:54;32.60;;;14.05;;
78860;SDS011;68211;45.774;15.892;2023-08-24T13:06:54;25.67;;;15.30;;
78860;SDS011;68211;45.774;15.892;2023-08-24T13:11:17;26.50;;;14.25;;
78860;SDS011;68211;45.774;15.892;2023-08-24T13:15:36;25.40;;;14.63;;
78860;SDS011;68211;45.774;15.892;2023-08-24T13:18:06;27.65;;;15.57;;
78860;SDS011;68211;45.774;15.892;2023-08-24T13:23:32;27.00;;;14.15;;
78860;SDS011;68211;45.774;15.892;2023-08-24T13:26:03;29.08;;;15.48;;
78860;SDS011;68211;45.774;15.892;2023-08-24T13:28:53;29.40;;;14.80;;
78860;SDS011;68211;45.774;15.892;2023-08-24T13:31:24;34.30;;;17.42;;
78860;SDS011;68211;45.774;15.892;2023-08-24T13:34:25;32.63;;;17.27;;
78860;SDS011;68211;45.774;15.892;2023-08-24T13:37:00;28.50;;;16.27;;
78860;SDS011;68211;45.774;15.892;2023-08-24T13:42:23;26.38;;;15.38;;
78860;SDS011;68211;45.774;15.892;2023-08-24T13:44:51;30.35;;;14.93;;
78860;SDS011;68211;45.774;15.892;2023-08-24T13:47:28;35.63;;;15.70;;
78860;SDS011;68211;45.774;15.892;2023-08-24T13:50:09;28.05;;;14.43;;
78860;SDS011;68211;45.774;15.892;2023-08-24T13:53:13;31.35;;;15.63;;
78860;SDS011;68211;45.774;15.892;2023-08-24T13:55:51;29.35;;;14.63;;
78860;SDS011;68211;45.774;15.892;2023-08-24T14:01:30;25.63;;;11.93;;
78860;SDS011;68211;45.774;15.892;2023-08-24T14:10:06;22.00;;;12.25;;
78860;SDS011;68211;45.774;15.892;2023-08-24T14:12:36;28.17;;;13.57;;
78860;SDS011;68211;45.774;15.892;2023-08-24T14:15:03;33.03;;;13.48;;
78860;SDS011;68211;45.774;15.892;2023-08-24T14:17:31;23.17;;;13.38;;
78860;SDS011;68211;45.774;15.892;2023-08-24T14:20:00;32.55;;;13.90;;
78860;SDS011;68211;45.774;15.892;2023-08-24T14:22:41;30.00;;;14.18;;
78860;SDS011;68211;45.774;15.892;2023-08-24T14:25:11;21.77;;;12.68;;
78860;SDS011;68211;45.774;15.892;2023-08-24T14:27:57;27.83;;;12.98;;
78860;SDS011;68211;45.774;15.892;2023-08-24T14:30:35;26.42;;;13.02;;
78860;SDS011;68211;45.774;15.892;2023-08-24T14:33:05;23.88;;;13.45;;
78860;SDS011;68211;45.774;15.892;2023-08-24T14:35:48;37.42;;;13.43;;
78860;SDS011;68211;45.774;15.892;2023-08-24T14:38:23;23.45;;;12.60;;
78860;SDS011;68211;45.774;15.892;2023-08-24T14:40:52;23.08;;;12.95;;
78860;SDS011;68211;45.774;15.892;2023-08-24T14:43:23;24.33;;;13.27;;
78860;SDS011;68211;45.774;15.892;2023-08-24T14:45:50;32.20;;;15.02;;
78860;SDS011;68211;45.774;15.892;2023-08-24T14:48:23;25.40;;;13.48;;
78860;SDS011;68211;45.774;15.892;2023-08-24T14:50:51;29.40;;;14.15;;
78860;SDS011;68211;45.774;15.892;2023-08-24T14:53:18;21.70;;;13.02;;
78860;SDS011;68211;45.774;15.892;2023-08-24T14:55:47;27.13;;;13.93;;
78860;SDS011;68211;45.774;15.892;2023-08-24T14:58:17;30.13;;;13.20;;
78860;SDS011;68211;45.774;15.892;2023-08-24T15:00:49;27.83;;;13.88;;
78860;SDS011;68211;45.774;15.892;2023-08-24T15:03:19;25.48;;;13.77;;
78860;SDS011;68211;45.774;15.892;2023-08-24T15:05:57;20.83;;;13.35;;
78860;SDS011;68211;45.774;15.892;2023-08-24T15:08:24;21.27;;;12.85;;
78860;SDS011;68211;45.774;15.892;2023-08-24T15:10:55;23.42;;;13.65;;
78860;SDS011;68211;45.774;15.892;2023-08-24T15:13:27;28.10;;;13.18;;
78860;SDS011;68211;45.774;15.892;2023-08-24T15:15:56;28.77;;;12.97;;
78860;SDS011;68211;45.774;15.892;2023-08-24T15:18:25;25.42;;;12.73;;